<?xml version="1.0" encoding="UTF-8" standalone="no" ?>
<gpx xmlns="http://www.topografix.com/GPX/1/1" creator="MapSource 6.11.6" version="1.1" xmlns:xsi="http://www.w3.org/2001/XMLSchema-instance" xsi:schemaLocation="http://www.topografix.com/GPX/1/1 http://www.topografix.com/GPX/1/1/gpx.xsd">

  <metadata>
    <link href="http://www.garmin.com">
      <text>Garmin International</text>
    </link>
    <time>2010-04-05T11:02:27Z</time>
    <bounds maxlat="50.678554" maxlon="6.408898" minlat="50.663296" minlon="6.389595"/>
  </metadata>

  <trk>
    <name>Rundwanderweg 05 Schmidt</name>
    <extensions>
      <gpxx:TrackExtension xmlns:gpxx="http://www.garmin.com/xmlschemas/GpxExtensions/v3" xmlns:xsi="http://www.w3.org/2001/XMLSchema-instance" xsi:schemaLocation="http://www.garmin.com/xmlschemas/GpxExtensions/v3 http://www.garmin.com/xmlschemas/GpxExtensions/v3/GpxExtensionsv3.xsd">
        <gpxx:DisplayColor>White</gpxx:DisplayColor>
      </gpxx:TrackExtension>
    </extensions>
    <trkseg>
      <trkpt lat="50.663523" lon="6.407723">
        <ele>464.450000</ele>
        <time>2010-04-05T08:26:06Z</time>
      </trkpt>
      <trkpt lat="50.663466" lon="6.407854">
        <ele>464.930000</ele>
        <time>2010-04-05T08:26:13Z</time>
      </trkpt>
      <trkpt lat="50.663360" lon="6.407686">
        <ele>464.930000</ele>
        <time>2010-04-05T08:26:22Z</time>
      </trkpt>
      <trkpt lat="50.663340" lon="6.407326">
        <ele>464.930000</ele>
        <time>2010-04-05T08:26:38Z</time>
      </trkpt>
      <trkpt lat="50.663392" lon="6.407054">
        <ele>464.930000</ele>
        <time>2010-04-05T08:26:49Z</time>
      </trkpt>
      <trkpt lat="50.663513" lon="6.406761">
        <ele>465.420000</ele>
        <time>2010-04-05T08:27:07Z</time>
      </trkpt>
      <trkpt lat="50.663629" lon="6.406523">
        <ele>464.930000</ele>
        <time>2010-04-05T08:27:23Z</time>
      </trkpt>
      <trkpt lat="50.663661" lon="6.406460">
        <ele>465.420000</ele>
        <time>2010-04-05T08:27:27Z</time>
      </trkpt>
      <trkpt lat="50.663676" lon="6.406422">
        <ele>465.420000</ele>
        <time>2010-04-05T08:27:31Z</time>
      </trkpt>
      <trkpt lat="50.663680" lon="6.406382">
        <ele>465.420000</ele>
        <time>2010-04-05T08:27:33Z</time>
      </trkpt>
      <trkpt lat="50.663728" lon="6.406137">
        <ele>465.420000</ele>
        <time>2010-04-05T08:27:47Z</time>
      </trkpt>
      <trkpt lat="50.663755" lon="6.405946">
        <ele>465.420000</ele>
        <time>2010-04-05T08:27:57Z</time>
      </trkpt>
      <trkpt lat="50.663807" lon="6.405688">
        <ele>465.420000</ele>
        <time>2010-04-05T08:28:09Z</time>
      </trkpt>
      <trkpt lat="50.663807" lon="6.405642">
        <ele>464.930000</ele>
        <time>2010-04-05T08:28:11Z</time>
      </trkpt>
      <trkpt lat="50.663822" lon="6.405437">
        <ele>463.970000</ele>
        <time>2010-04-05T08:28:22Z</time>
      </trkpt>
      <trkpt lat="50.663817" lon="6.405330">
        <ele>463.490000</ele>
        <time>2010-04-05T08:28:26Z</time>
      </trkpt>
      <trkpt lat="50.663830" lon="6.405229">
        <ele>463.010000</ele>
        <time>2010-04-05T08:28:32Z</time>
      </trkpt>
      <trkpt lat="50.663829" lon="6.405152">
        <ele>462.530000</ele>
        <time>2010-04-05T08:28:36Z</time>
      </trkpt>
      <trkpt lat="50.663824" lon="6.405066">
        <ele>462.530000</ele>
        <time>2010-04-05T08:28:41Z</time>
      </trkpt>
      <trkpt lat="50.663774" lon="6.404901">
        <ele>461.090000</ele>
        <time>2010-04-05T08:28:51Z</time>
      </trkpt>
      <trkpt lat="50.663788" lon="6.404652">
        <ele>460.130000</ele>
        <time>2010-04-05T08:29:03Z</time>
      </trkpt>
      <trkpt lat="50.663754" lon="6.404292">
        <ele>456.760000</ele>
        <time>2010-04-05T08:29:22Z</time>
      </trkpt>
      <trkpt lat="50.663839" lon="6.404143">
        <ele>453.400000</ele>
        <time>2010-04-05T08:29:36Z</time>
      </trkpt>
      <trkpt lat="50.663858" lon="6.404190">
        <ele>452.920000</ele>
        <time>2010-04-05T08:29:40Z</time>
      </trkpt>
      <trkpt lat="50.663889" lon="6.404244">
        <ele>451.960000</ele>
        <time>2010-04-05T08:29:44Z</time>
      </trkpt>
      <trkpt lat="50.664110" lon="6.404436">
        <ele>449.070000</ele>
        <time>2010-04-05T08:30:02Z</time>
      </trkpt>
      <trkpt lat="50.664227" lon="6.404658">
        <ele>446.670000</ele>
        <time>2010-04-05T08:30:22Z</time>
      </trkpt>
      <trkpt lat="50.664376" lon="6.404988">
        <ele>444.270000</ele>
        <time>2010-04-05T08:30:40Z</time>
      </trkpt>
      <trkpt lat="50.664577" lon="6.405248">
        <ele>441.860000</ele>
        <time>2010-04-05T08:30:58Z</time>
      </trkpt>
      <trkpt lat="50.664756" lon="6.405486">
        <ele>438.980000</ele>
        <time>2010-04-05T08:31:17Z</time>
      </trkpt>
      <trkpt lat="50.664888" lon="6.405540">
        <ele>437.540000</ele>
        <time>2010-04-05T08:31:25Z</time>
      </trkpt>
      <trkpt lat="50.664974" lon="6.405748">
        <ele>435.130000</ele>
        <time>2010-04-05T08:31:38Z</time>
      </trkpt>
      <trkpt lat="50.665105" lon="6.405897">
        <ele>432.730000</ele>
        <time>2010-04-05T08:31:54Z</time>
      </trkpt>
      <trkpt lat="50.665138" lon="6.406037">
        <ele>431.770000</ele>
        <time>2010-04-05T08:32:02Z</time>
      </trkpt>
      <trkpt lat="50.665183" lon="6.406170">
        <ele>430.810000</ele>
        <time>2010-04-05T08:32:10Z</time>
      </trkpt>
      <trkpt lat="50.665347" lon="6.406427">
        <ele>428.400000</ele>
        <time>2010-04-05T08:32:25Z</time>
      </trkpt>
      <trkpt lat="50.665376" lon="6.406539">
        <ele>427.440000</ele>
        <time>2010-04-05T08:32:31Z</time>
      </trkpt>
      <trkpt lat="50.665403" lon="6.406590">
        <ele>426.960000</ele>
        <time>2010-04-05T08:32:34Z</time>
      </trkpt>
      <trkpt lat="50.665410" lon="6.406782">
        <ele>425.040000</ele>
        <time>2010-04-05T08:32:45Z</time>
      </trkpt>
      <trkpt lat="50.665420" lon="6.406792">
        <ele>425.040000</ele>
        <time>2010-04-05T08:32:46Z</time>
      </trkpt>
      <trkpt lat="50.665471" lon="6.406922">
        <ele>424.080000</ele>
        <time>2010-04-05T08:32:53Z</time>
      </trkpt>
      <trkpt lat="50.665506" lon="6.407033">
        <ele>423.120000</ele>
        <time>2010-04-05T08:32:59Z</time>
      </trkpt>
      <trkpt lat="50.665583" lon="6.406998">
        <ele>422.640000</ele>
        <time>2010-04-05T08:33:11Z</time>
      </trkpt>
      <trkpt lat="50.665629" lon="6.406997">
        <ele>422.160000</ele>
        <time>2010-04-05T08:33:28Z</time>
      </trkpt>
      <trkpt lat="50.665761" lon="6.407182">
        <ele>419.750000</ele>
        <time>2010-04-05T08:33:42Z</time>
      </trkpt>
      <trkpt lat="50.665869" lon="6.407348">
        <ele>417.830000</ele>
        <time>2010-04-05T08:33:57Z</time>
      </trkpt>
      <trkpt lat="50.666040" lon="6.407531">
        <ele>414.950000</ele>
        <time>2010-04-05T08:34:15Z</time>
      </trkpt>
      <trkpt lat="50.666033" lon="6.407605">
        <ele>414.470000</ele>
        <time>2010-04-05T08:34:18Z</time>
      </trkpt>
      <trkpt lat="50.666136" lon="6.407754">
        <ele>412.540000</ele>
        <time>2010-04-05T08:34:28Z</time>
      </trkpt>
      <trkpt lat="50.666250" lon="6.408127">
        <ele>411.100000</ele>
        <time>2010-04-05T08:34:49Z</time>
      </trkpt>
      <trkpt lat="50.666374" lon="6.408286">
        <ele>411.100000</ele>
        <time>2010-04-05T08:35:08Z</time>
      </trkpt>
      <trkpt lat="50.666527" lon="6.408341">
        <ele>410.620000</ele>
        <time>2010-04-05T08:35:26Z</time>
      </trkpt>
      <trkpt lat="50.666680" lon="6.408324">
        <ele>407.740000</ele>
        <time>2010-04-05T08:35:48Z</time>
      </trkpt>
      <trkpt lat="50.666923" lon="6.408307">
        <ele>405.330000</ele>
        <time>2010-04-05T08:36:03Z</time>
      </trkpt>
      <trkpt lat="50.667137" lon="6.408193">
        <ele>402.450000</ele>
        <time>2010-04-05T08:36:21Z</time>
      </trkpt>
      <trkpt lat="50.667136" lon="6.408183">
        <ele>402.450000</ele>
        <time>2010-04-05T08:36:22Z</time>
      </trkpt>
      <trkpt lat="50.667190" lon="6.408134">
        <ele>401.490000</ele>
        <time>2010-04-05T08:36:26Z</time>
      </trkpt>
      <trkpt lat="50.667342" lon="6.408140">
        <ele>398.600000</ele>
        <time>2010-04-05T08:36:38Z</time>
      </trkpt>
      <trkpt lat="50.667455" lon="6.408131">
        <ele>396.680000</ele>
        <time>2010-04-05T08:36:48Z</time>
      </trkpt>
      <trkpt lat="50.667480" lon="6.408121">
        <ele>396.200000</ele>
        <time>2010-04-05T08:36:51Z</time>
      </trkpt>
      <trkpt lat="50.667640" lon="6.407993">
        <ele>393.320000</ele>
        <time>2010-04-05T08:37:02Z</time>
      </trkpt>
      <trkpt lat="50.667695" lon="6.407979">
        <ele>392.840000</ele>
        <time>2010-04-05T08:37:06Z</time>
      </trkpt>
      <trkpt lat="50.667931" lon="6.407885">
        <ele>390.430000</ele>
        <time>2010-04-05T08:37:18Z</time>
      </trkpt>
      <trkpt lat="50.668046" lon="6.407778">
        <ele>388.510000</ele>
        <time>2010-04-05T08:37:25Z</time>
      </trkpt>
      <trkpt lat="50.668281" lon="6.407851">
        <ele>386.590000</ele>
        <time>2010-04-05T08:37:35Z</time>
      </trkpt>
      <trkpt lat="50.668382" lon="6.407758">
        <ele>385.150000</ele>
        <time>2010-04-05T08:37:47Z</time>
      </trkpt>
      <trkpt lat="50.668386" lon="6.407725">
        <ele>384.660000</ele>
        <time>2010-04-05T08:37:49Z</time>
      </trkpt>
      <trkpt lat="50.668389" lon="6.407714">
        <ele>384.180000</ele>
        <time>2010-04-05T08:37:51Z</time>
      </trkpt>
      <trkpt lat="50.668497" lon="6.407721">
        <ele>383.220000</ele>
        <time>2010-04-05T08:37:57Z</time>
      </trkpt>
      <trkpt lat="50.668577" lon="6.407716">
        <ele>382.260000</ele>
        <time>2010-04-05T08:38:03Z</time>
      </trkpt>
      <trkpt lat="50.668712" lon="6.407625">
        <ele>380.820000</ele>
        <time>2010-04-05T08:38:12Z</time>
      </trkpt>
      <trkpt lat="50.668788" lon="6.407600">
        <ele>380.340000</ele>
        <time>2010-04-05T08:38:16Z</time>
      </trkpt>
      <trkpt lat="50.668833" lon="6.407542">
        <ele>378.900000</ele>
        <time>2010-04-05T08:38:22Z</time>
      </trkpt>
      <trkpt lat="50.668967" lon="6.407573">
        <ele>377.940000</ele>
        <time>2010-04-05T08:38:29Z</time>
      </trkpt>
      <trkpt lat="50.669033" lon="6.407403">
        <ele>376.490000</ele>
        <time>2010-04-05T08:38:38Z</time>
      </trkpt>
      <trkpt lat="50.669023" lon="6.407234">
        <ele>375.050000</ele>
        <time>2010-04-05T08:38:46Z</time>
      </trkpt>
      <trkpt lat="50.669081" lon="6.407064">
        <ele>373.610000</ele>
        <time>2010-04-05T08:38:58Z</time>
      </trkpt>
      <trkpt lat="50.669154" lon="6.406909">
        <ele>372.650000</ele>
        <time>2010-04-05T08:39:09Z</time>
      </trkpt>
      <trkpt lat="50.669179" lon="6.406899">
        <ele>373.130000</ele>
        <time>2010-04-05T08:39:14Z</time>
      </trkpt>
      <trkpt lat="50.669230" lon="6.406812">
        <ele>373.130000</ele>
        <time>2010-04-05T08:39:18Z</time>
      </trkpt>
      <trkpt lat="50.669362" lon="6.406730">
        <ele>372.650000</ele>
        <time>2010-04-05T08:39:31Z</time>
      </trkpt>
      <trkpt lat="50.669379" lon="6.406712">
        <ele>372.650000</ele>
        <time>2010-04-05T08:39:33Z</time>
      </trkpt>
      <trkpt lat="50.669569" lon="6.406488">
        <ele>372.170000</ele>
        <time>2010-04-05T08:39:51Z</time>
      </trkpt>
      <trkpt lat="50.669711" lon="6.406284">
        <ele>371.690000</ele>
        <time>2010-04-05T08:40:09Z</time>
      </trkpt>
      <trkpt lat="50.669953" lon="6.405847">
        <ele>370.730000</ele>
        <time>2010-04-05T08:40:32Z</time>
      </trkpt>
      <trkpt lat="50.670024" lon="6.405720">
        <ele>370.240000</ele>
        <time>2010-04-05T08:40:51Z</time>
      </trkpt>
      <trkpt lat="50.670104" lon="6.405515">
        <ele>370.240000</ele>
        <time>2010-04-05T08:41:13Z</time>
      </trkpt>
      <trkpt lat="50.670259" lon="6.405343">
        <ele>369.280000</ele>
        <time>2010-04-05T08:41:28Z</time>
      </trkpt>
      <trkpt lat="50.670404" lon="6.405126">
        <ele>367.360000</ele>
        <time>2010-04-05T08:41:49Z</time>
      </trkpt>
      <trkpt lat="50.670468" lon="6.405096">
        <ele>366.880000</ele>
        <time>2010-04-05T08:41:55Z</time>
      </trkpt>
      <trkpt lat="50.670755" lon="6.404918">
        <ele>364.480000</ele>
        <time>2010-04-05T08:42:13Z</time>
      </trkpt>
      <trkpt lat="50.670873" lon="6.404940">
        <ele>361.590000</ele>
        <time>2010-04-05T08:42:38Z</time>
      </trkpt>
      <trkpt lat="50.671131" lon="6.404761">
        <ele>359.670000</ele>
        <time>2010-04-05T08:42:55Z</time>
      </trkpt>
      <trkpt lat="50.671527" lon="6.404867">
        <ele>359.190000</ele>
        <time>2010-04-05T08:43:28Z</time>
      </trkpt>
      <trkpt lat="50.671592" lon="6.404835">
        <ele>358.710000</ele>
        <time>2010-04-05T08:43:32Z</time>
      </trkpt>
      <trkpt lat="50.671744" lon="6.404787">
        <ele>357.270000</ele>
        <time>2010-04-05T08:43:44Z</time>
      </trkpt>
      <trkpt lat="50.672065" lon="6.404868">
        <ele>355.340000</ele>
        <time>2010-04-05T08:44:05Z</time>
      </trkpt>
      <trkpt lat="50.672208" lon="6.404995">
        <ele>353.420000</ele>
        <time>2010-04-05T08:44:20Z</time>
      </trkpt>
      <trkpt lat="50.672379" lon="6.405031">
        <ele>352.460000</ele>
        <time>2010-04-05T08:44:37Z</time>
      </trkpt>
      <trkpt lat="50.672446" lon="6.405027">
        <ele>351.500000</ele>
        <time>2010-04-05T08:44:42Z</time>
      </trkpt>
      <trkpt lat="50.672707" lon="6.405156">
        <ele>349.580000</ele>
        <time>2010-04-05T08:45:05Z</time>
      </trkpt>
      <trkpt lat="50.672740" lon="6.405161">
        <ele>349.580000</ele>
        <time>2010-04-05T08:45:08Z</time>
      </trkpt>
      <trkpt lat="50.672828" lon="6.405139">
        <ele>348.620000</ele>
        <time>2010-04-05T08:45:16Z</time>
      </trkpt>
      <trkpt lat="50.672949" lon="6.405118">
        <ele>347.650000</ele>
        <time>2010-04-05T08:45:28Z</time>
      </trkpt>
      <trkpt lat="50.672972" lon="6.405159">
        <ele>347.170000</ele>
        <time>2010-04-05T08:45:33Z</time>
      </trkpt>
      <trkpt lat="50.673006" lon="6.405248">
        <ele>346.690000</ele>
        <time>2010-04-05T08:45:38Z</time>
      </trkpt>
      <trkpt lat="50.673038" lon="6.405263">
        <ele>346.210000</ele>
        <time>2010-04-05T08:45:43Z</time>
      </trkpt>
      <trkpt lat="50.673163" lon="6.405100">
        <ele>345.730000</ele>
        <time>2010-04-05T08:45:47Z</time>
      </trkpt>
      <trkpt lat="50.673243" lon="6.405068">
        <ele>345.250000</ele>
        <time>2010-04-05T08:45:54Z</time>
      </trkpt>
      <trkpt lat="50.673331" lon="6.405050">
        <ele>344.770000</ele>
        <time>2010-04-05T08:46:02Z</time>
      </trkpt>
      <trkpt lat="50.673343" lon="6.405095">
        <ele>344.770000</ele>
        <time>2010-04-05T08:46:05Z</time>
      </trkpt>
      <trkpt lat="50.673413" lon="6.405084">
        <ele>344.290000</ele>
        <time>2010-04-05T08:46:12Z</time>
      </trkpt>
      <trkpt lat="50.673455" lon="6.405037">
        <ele>342.850000</ele>
        <time>2010-04-05T08:46:18Z</time>
      </trkpt>
      <trkpt lat="50.673530" lon="6.404970">
        <ele>342.370000</ele>
        <time>2010-04-05T08:46:22Z</time>
      </trkpt>
      <trkpt lat="50.673545" lon="6.404955">
        <ele>341.890000</ele>
        <time>2010-04-05T08:46:24Z</time>
      </trkpt>
      <trkpt lat="50.673869" lon="6.404752">
        <ele>340.440000</ele>
        <time>2010-04-05T08:46:34Z</time>
      </trkpt>
      <trkpt lat="50.674047" lon="6.404863">
        <ele>339.480000</ele>
        <time>2010-04-05T08:46:42Z</time>
      </trkpt>
      <trkpt lat="50.674030" lon="6.405016">
        <ele>337.560000</ele>
        <time>2010-04-05T08:46:54Z</time>
      </trkpt>
      <trkpt lat="50.674051" lon="6.405008">
        <ele>337.080000</ele>
        <time>2010-04-05T08:46:57Z</time>
      </trkpt>
      <trkpt lat="50.674044" lon="6.404887">
        <ele>336.600000</ele>
        <time>2010-04-05T08:47:04Z</time>
      </trkpt>
      <trkpt lat="50.674178" lon="6.404688">
        <ele>336.120000</ele>
        <time>2010-04-05T08:47:16Z</time>
      </trkpt>
      <trkpt lat="50.674195" lon="6.404611">
        <ele>335.160000</ele>
        <time>2010-04-05T08:47:27Z</time>
      </trkpt>
      <trkpt lat="50.674191" lon="6.404570">
        <ele>334.680000</ele>
        <time>2010-04-05T08:47:30Z</time>
      </trkpt>
      <trkpt lat="50.674304" lon="6.404427">
        <ele>333.710000</ele>
        <time>2010-04-05T08:47:39Z</time>
      </trkpt>
      <trkpt lat="50.674422" lon="6.404191">
        <ele>331.790000</ele>
        <time>2010-04-05T08:47:53Z</time>
      </trkpt>
      <trkpt lat="50.674395" lon="6.403918">
        <ele>330.350000</ele>
        <time>2010-04-05T08:48:06Z</time>
      </trkpt>
      <trkpt lat="50.674421" lon="6.403760">
        <ele>329.870000</ele>
        <time>2010-04-05T08:48:13Z</time>
      </trkpt>
      <trkpt lat="50.674423" lon="6.403352">
        <ele>328.430000</ele>
        <time>2010-04-05T08:48:26Z</time>
      </trkpt>
      <trkpt lat="50.674380" lon="6.403213">
        <ele>327.950000</ele>
        <time>2010-04-05T08:48:28Z</time>
      </trkpt>
      <trkpt lat="50.674421" lon="6.402925">
        <ele>326.020000</ele>
        <time>2010-04-05T08:48:42Z</time>
      </trkpt>
      <trkpt lat="50.674500" lon="6.402664">
        <ele>324.580000</ele>
        <time>2010-04-05T08:48:56Z</time>
      </trkpt>
      <trkpt lat="50.674505" lon="6.402659">
        <ele>324.580000</ele>
        <time>2010-04-05T08:48:57Z</time>
      </trkpt>
      <trkpt lat="50.674532" lon="6.402605">
        <ele>324.100000</ele>
        <time>2010-04-05T08:49:01Z</time>
      </trkpt>
      <trkpt lat="50.674570" lon="6.402493">
        <ele>323.140000</ele>
        <time>2010-04-05T08:49:07Z</time>
      </trkpt>
      <trkpt lat="50.674563" lon="6.402250">
        <ele>321.700000</ele>
        <time>2010-04-05T08:49:20Z</time>
      </trkpt>
      <trkpt lat="50.674605" lon="6.402133">
        <ele>321.220000</ele>
        <time>2010-04-05T08:49:24Z</time>
      </trkpt>
      <trkpt lat="50.674608" lon="6.402132">
        <ele>320.740000</ele>
        <time>2010-04-05T08:49:27Z</time>
      </trkpt>
      <trkpt lat="50.674732" lon="6.401971">
        <ele>320.260000</ele>
        <time>2010-04-05T08:49:35Z</time>
      </trkpt>
      <trkpt lat="50.674727" lon="6.401909">
        <ele>318.330000</ele>
        <time>2010-04-05T08:49:46Z</time>
      </trkpt>
      <trkpt lat="50.674838" lon="6.401695">
        <ele>316.890000</ele>
        <time>2010-04-05T08:50:00Z</time>
      </trkpt>
      <trkpt lat="50.674968" lon="6.401433">
        <ele>315.450000</ele>
        <time>2010-04-05T08:50:12Z</time>
      </trkpt>
      <trkpt lat="50.674987" lon="6.401383">
        <ele>314.970000</ele>
        <time>2010-04-05T08:50:14Z</time>
      </trkpt>
      <trkpt lat="50.675098" lon="6.401364">
        <ele>314.970000</ele>
        <time>2010-04-05T08:50:18Z</time>
      </trkpt>
      <trkpt lat="50.675214" lon="6.401282">
        <ele>313.530000</ele>
        <time>2010-04-05T08:50:31Z</time>
      </trkpt>
      <trkpt lat="50.675293" lon="6.401098">
        <ele>311.600000</ele>
        <time>2010-04-05T08:50:46Z</time>
      </trkpt>
      <trkpt lat="50.675371" lon="6.400933">
        <ele>310.160000</ele>
        <time>2010-04-05T08:51:03Z</time>
      </trkpt>
      <trkpt lat="50.675582" lon="6.400718">
        <ele>307.760000</ele>
        <time>2010-04-05T08:51:23Z</time>
      </trkpt>
      <trkpt lat="50.675876" lon="6.400469">
        <ele>305.840000</ele>
        <time>2010-04-05T08:51:42Z</time>
      </trkpt>
      <trkpt lat="50.676048" lon="6.400352">
        <ele>304.390000</ele>
        <time>2010-04-05T08:52:01Z</time>
      </trkpt>
      <trkpt lat="50.676131" lon="6.400303">
        <ele>302.950000</ele>
        <time>2010-04-05T08:52:19Z</time>
      </trkpt>
      <trkpt lat="50.676353" lon="6.400180">
        <ele>301.990000</ele>
        <time>2010-04-05T08:52:33Z</time>
      </trkpt>
      <trkpt lat="50.676606" lon="6.399898">
        <ele>301.990000</ele>
        <time>2010-04-05T08:52:43Z</time>
      </trkpt>
      <trkpt lat="50.677208" lon="6.399721">
        <ele>301.030000</ele>
        <time>2010-04-05T08:52:59Z</time>
      </trkpt>
      <trkpt lat="50.677262" lon="6.399681">
        <ele>301.030000</ele>
        <time>2010-04-05T08:53:03Z</time>
      </trkpt>
      <trkpt lat="50.677379" lon="6.399644">
        <ele>300.550000</ele>
        <time>2010-04-05T08:53:08Z</time>
      </trkpt>
      <trkpt lat="50.677479" lon="6.399553">
        <ele>300.550000</ele>
        <time>2010-04-05T08:53:14Z</time>
      </trkpt>
      <trkpt lat="50.677516" lon="6.399430">
        <ele>299.590000</ele>
        <time>2010-04-05T08:53:22Z</time>
      </trkpt>
      <trkpt lat="50.677551" lon="6.399377">
        <ele>299.590000</ele>
        <time>2010-04-05T08:53:26Z</time>
      </trkpt>
      <trkpt lat="50.677573" lon="6.399350">
        <ele>299.110000</ele>
        <time>2010-04-05T08:53:28Z</time>
      </trkpt>
      <trkpt lat="50.677567" lon="6.399304">
        <ele>299.110000</ele>
        <time>2010-04-05T08:53:31Z</time>
      </trkpt>
      <trkpt lat="50.677590" lon="6.399138">
        <ele>298.630000</ele>
        <time>2010-04-05T08:53:43Z</time>
      </trkpt>
      <trkpt lat="50.677592" lon="6.399120">
        <ele>298.150000</ele>
        <time>2010-04-05T08:53:47Z</time>
      </trkpt>
      <trkpt lat="50.677734" lon="6.398960">
        <ele>298.150000</ele>
        <time>2010-04-05T08:53:59Z</time>
      </trkpt>
      <trkpt lat="50.677776" lon="6.398869">
        <ele>297.670000</ele>
        <time>2010-04-05T08:54:04Z</time>
      </trkpt>
      <trkpt lat="50.677764" lon="6.398762">
        <ele>298.150000</ele>
        <time>2010-04-05T08:54:15Z</time>
      </trkpt>
      <trkpt lat="50.677803" lon="6.398695">
        <ele>298.150000</ele>
        <time>2010-04-05T08:54:18Z</time>
      </trkpt>
      <trkpt lat="50.677832" lon="6.398616">
        <ele>298.150000</ele>
        <time>2010-04-05T08:54:21Z</time>
      </trkpt>
      <trkpt lat="50.677730" lon="6.398123">
        <ele>298.150000</ele>
        <time>2010-04-05T08:54:35Z</time>
      </trkpt>
      <trkpt lat="50.677850" lon="6.397861">
        <ele>297.670000</ele>
        <time>2010-04-05T08:54:56Z</time>
      </trkpt>
      <trkpt lat="50.677885" lon="6.397541">
        <ele>297.670000</ele>
        <time>2010-04-05T08:55:16Z</time>
      </trkpt>
      <trkpt lat="50.677949" lon="6.397233">
        <ele>297.670000</ele>
        <time>2010-04-05T08:55:36Z</time>
      </trkpt>
      <trkpt lat="50.678015" lon="6.397145">
        <ele>297.180000</ele>
        <time>2010-04-05T08:55:42Z</time>
      </trkpt>
      <trkpt lat="50.678040" lon="6.396844">
        <ele>296.700000</ele>
        <time>2010-04-05T08:55:59Z</time>
      </trkpt>
      <trkpt lat="50.678089" lon="6.396518">
        <ele>295.740000</ele>
        <time>2010-04-05T08:56:17Z</time>
      </trkpt>
      <trkpt lat="50.678128" lon="6.396200">
        <ele>294.780000</ele>
        <time>2010-04-05T08:56:35Z</time>
      </trkpt>
      <trkpt lat="50.678153" lon="6.395769">
        <ele>292.860000</ele>
        <time>2010-04-05T08:56:58Z</time>
      </trkpt>
      <trkpt lat="50.678318" lon="6.395400">
        <ele>291.420000</ele>
        <time>2010-04-05T08:57:20Z</time>
      </trkpt>
      <trkpt lat="50.678313" lon="6.395341">
        <ele>291.420000</ele>
        <time>2010-04-05T08:57:23Z</time>
      </trkpt>
      <trkpt lat="50.678351" lon="6.395169">
        <ele>291.420000</ele>
        <time>2010-04-05T08:57:25Z</time>
      </trkpt>
      <trkpt lat="50.678280" lon="6.395073">
        <ele>290.940000</ele>
        <time>2010-04-05T08:57:34Z</time>
      </trkpt>
      <trkpt lat="50.678322" lon="6.394876">
        <ele>290.460000</ele>
        <time>2010-04-05T08:57:47Z</time>
      </trkpt>
      <trkpt lat="50.678393" lon="6.394630">
        <ele>290.460000</ele>
        <time>2010-04-05T08:58:07Z</time>
      </trkpt>
      <trkpt lat="50.678462" lon="6.394441">
        <ele>289.970000</ele>
        <time>2010-04-05T08:58:25Z</time>
      </trkpt>
      <trkpt lat="50.678543" lon="6.394188">
        <ele>289.010000</ele>
        <time>2010-04-05T08:58:48Z</time>
      </trkpt>
      <trkpt lat="50.678554" lon="6.393914">
        <ele>288.530000</ele>
        <time>2010-04-05T08:59:01Z</time>
      </trkpt>
      <trkpt lat="50.678469" lon="6.393735">
        <ele>288.530000</ele>
        <time>2010-04-05T08:59:09Z</time>
      </trkpt>
      <trkpt lat="50.678357" lon="6.393518">
        <ele>287.090000</ele>
        <time>2010-04-05T08:59:22Z</time>
      </trkpt>
      <trkpt lat="50.678291" lon="6.393278">
        <ele>286.130000</ele>
        <time>2010-04-05T08:59:35Z</time>
      </trkpt>
      <trkpt lat="50.678267" lon="6.393190">
        <ele>285.650000</ele>
        <time>2010-04-05T08:59:42Z</time>
      </trkpt>
      <trkpt lat="50.678278" lon="6.393153">
        <ele>285.650000</ele>
        <time>2010-04-05T08:59:47Z</time>
      </trkpt>
      <trkpt lat="50.678274" lon="6.393104">
        <ele>285.650000</ele>
        <time>2010-04-05T08:59:49Z</time>
      </trkpt>
      <trkpt lat="50.678257" lon="6.393077">
        <ele>285.650000</ele>
        <time>2010-04-05T08:59:52Z</time>
      </trkpt>
      <trkpt lat="50.678137" lon="6.392978">
        <ele>284.690000</ele>
        <time>2010-04-05T09:00:03Z</time>
      </trkpt>
      <trkpt lat="50.678151" lon="6.392593">
        <ele>283.730000</ele>
        <time>2010-04-05T09:00:20Z</time>
      </trkpt>
      <trkpt lat="50.678089" lon="6.392091">
        <ele>282.770000</ele>
        <time>2010-04-05T09:00:42Z</time>
      </trkpt>
      <trkpt lat="50.678068" lon="6.391716">
        <ele>281.800000</ele>
        <time>2010-04-05T09:01:01Z</time>
      </trkpt>
      <trkpt lat="50.678090" lon="6.391543">
        <ele>282.280000</ele>
        <time>2010-04-05T09:01:09Z</time>
      </trkpt>
      <trkpt lat="50.678068" lon="6.391426">
        <ele>281.800000</ele>
        <time>2010-04-05T09:01:15Z</time>
      </trkpt>
      <trkpt lat="50.677976" lon="6.391144">
        <ele>282.770000</ele>
        <time>2010-04-05T09:01:31Z</time>
      </trkpt>
      <trkpt lat="50.677993" lon="6.390937">
        <ele>283.730000</ele>
        <time>2010-04-05T09:01:40Z</time>
      </trkpt>
      <trkpt lat="50.677935" lon="6.390775">
        <ele>283.250000</ele>
        <time>2010-04-05T09:01:53Z</time>
      </trkpt>
      <trkpt lat="50.677889" lon="6.390638">
        <ele>283.250000</ele>
        <time>2010-04-05T09:02:04Z</time>
      </trkpt>
      <trkpt lat="50.677757" lon="6.390474">
        <ele>282.770000</ele>
        <time>2010-04-05T09:02:25Z</time>
      </trkpt>
      <trkpt lat="50.677714" lon="6.390473">
        <ele>280.840000</ele>
        <time>2010-04-05T09:02:57Z</time>
      </trkpt>
      <trkpt lat="50.677684" lon="6.390427">
        <ele>279.880000</ele>
        <time>2010-04-05T09:03:10Z</time>
      </trkpt>
      <trkpt lat="50.677662" lon="6.390403">
        <ele>278.440000</ele>
        <time>2010-04-05T09:03:28Z</time>
      </trkpt>
      <trkpt lat="50.677658" lon="6.390414">
        <ele>278.440000</ele>
        <time>2010-04-05T09:03:41Z</time>
      </trkpt>
      <trkpt lat="50.677558" lon="6.390479">
        <ele>277.000000</ele>
        <time>2010-04-05T09:03:55Z</time>
      </trkpt>
      <trkpt lat="50.677267" lon="6.390606">
        <ele>277.000000</ele>
        <time>2010-04-05T09:04:18Z</time>
      </trkpt>
      <trkpt lat="50.677093" lon="6.390630">
        <ele>277.000000</ele>
        <time>2010-04-05T09:04:32Z</time>
      </trkpt>
      <trkpt lat="50.677063" lon="6.390690">
        <ele>276.520000</ele>
        <time>2010-04-05T09:04:36Z</time>
      </trkpt>
      <trkpt lat="50.677010" lon="6.390675">
        <ele>276.040000</ele>
        <time>2010-04-05T09:04:40Z</time>
      </trkpt>
      <trkpt lat="50.676788" lon="6.390734">
        <ele>276.040000</ele>
        <time>2010-04-05T09:04:56Z</time>
      </trkpt>
      <trkpt lat="50.676662" lon="6.390803">
        <ele>275.070000</ele>
        <time>2010-04-05T09:05:07Z</time>
      </trkpt>
      <trkpt lat="50.676622" lon="6.390846">
        <ele>274.590000</ele>
        <time>2010-04-05T09:05:12Z</time>
      </trkpt>
      <trkpt lat="50.676448" lon="6.390942">
        <ele>274.110000</ele>
        <time>2010-04-05T09:05:28Z</time>
      </trkpt>
      <trkpt lat="50.676435" lon="6.390948">
        <ele>274.110000</ele>
        <time>2010-04-05T09:05:29Z</time>
      </trkpt>
      <trkpt lat="50.676274" lon="6.391021">
        <ele>274.110000</ele>
        <time>2010-04-05T09:05:43Z</time>
      </trkpt>
      <trkpt lat="50.676168" lon="6.391027">
        <ele>273.630000</ele>
        <time>2010-04-05T09:05:51Z</time>
      </trkpt>
      <trkpt lat="50.676129" lon="6.391023">
        <ele>273.150000</ele>
        <time>2010-04-05T09:05:55Z</time>
      </trkpt>
      <trkpt lat="50.676073" lon="6.391054">
        <ele>273.150000</ele>
        <time>2010-04-05T09:05:59Z</time>
      </trkpt>
      <trkpt lat="50.675918" lon="6.391032">
        <ele>272.190000</ele>
        <time>2010-04-05T09:06:14Z</time>
      </trkpt>
      <trkpt lat="50.675885" lon="6.390947">
        <ele>272.190000</ele>
        <time>2010-04-05T09:06:21Z</time>
      </trkpt>
      <trkpt lat="50.675854" lon="6.390915">
        <ele>272.670000</ele>
        <time>2010-04-05T09:06:25Z</time>
      </trkpt>
      <trkpt lat="50.675741" lon="6.390805">
        <ele>272.190000</ele>
        <time>2010-04-05T09:06:38Z</time>
      </trkpt>
      <trkpt lat="50.675439" lon="6.390580">
        <ele>271.710000</ele>
        <time>2010-04-05T09:07:00Z</time>
      </trkpt>
      <trkpt lat="50.675286" lon="6.390232">
        <ele>272.670000</ele>
        <time>2010-04-05T09:07:25Z</time>
      </trkpt>
      <trkpt lat="50.675063" lon="6.389969">
        <ele>273.150000</ele>
        <time>2010-04-05T09:07:44Z</time>
      </trkpt>
      <trkpt lat="50.674857" lon="6.389800">
        <ele>273.630000</ele>
        <time>2010-04-05T09:07:59Z</time>
      </trkpt>
      <trkpt lat="50.674659" lon="6.389715">
        <ele>273.150000</ele>
        <time>2010-04-05T09:08:14Z</time>
      </trkpt>
      <trkpt lat="50.674628" lon="6.389726">
        <ele>273.630000</ele>
        <time>2010-04-05T09:08:17Z</time>
      </trkpt>
      <trkpt lat="50.674606" lon="6.389719">
        <ele>273.150000</ele>
        <time>2010-04-05T09:08:19Z</time>
      </trkpt>
      <trkpt lat="50.674498" lon="6.389640">
        <ele>273.630000</ele>
        <time>2010-04-05T09:08:29Z</time>
      </trkpt>
      <trkpt lat="50.674521" lon="6.389595">
        <ele>273.150000</ele>
        <time>2010-04-05T09:08:50Z</time>
      </trkpt>
      <trkpt lat="50.674506" lon="6.389668">
        <ele>272.190000</ele>
        <time>2010-04-05T09:09:48Z</time>
      </trkpt>
      <trkpt lat="50.674493" lon="6.389718">
        <ele>272.670000</ele>
        <time>2010-04-05T09:09:53Z</time>
      </trkpt>
      <trkpt lat="50.674369" lon="6.389861">
        <ele>272.190000</ele>
        <time>2010-04-05T09:10:07Z</time>
      </trkpt>
      <trkpt lat="50.674229" lon="6.390009">
        <ele>270.750000</ele>
        <time>2010-04-05T09:10:19Z</time>
      </trkpt>
      <trkpt lat="50.674080" lon="6.390127">
        <ele>269.790000</ele>
        <time>2010-04-05T09:10:30Z</time>
      </trkpt>
      <trkpt lat="50.673855" lon="6.390208">
        <ele>268.830000</ele>
        <time>2010-04-05T09:10:43Z</time>
      </trkpt>
      <trkpt lat="50.673681" lon="6.390247">
        <ele>267.380000</ele>
        <time>2010-04-05T09:10:56Z</time>
      </trkpt>
      <trkpt lat="50.673494" lon="6.390231">
        <ele>265.460000</ele>
        <time>2010-04-05T09:11:09Z</time>
      </trkpt>
      <trkpt lat="50.673456" lon="6.390225">
        <ele>264.500000</ele>
        <time>2010-04-05T09:11:12Z</time>
      </trkpt>
      <trkpt lat="50.673350" lon="6.390237">
        <ele>264.020000</ele>
        <time>2010-04-05T09:11:20Z</time>
      </trkpt>
      <trkpt lat="50.673217" lon="6.390171">
        <ele>262.580000</ele>
        <time>2010-04-05T09:11:32Z</time>
      </trkpt>
      <trkpt lat="50.673195" lon="6.390344">
        <ele>261.620000</ele>
        <time>2010-04-05T09:11:43Z</time>
      </trkpt>
      <trkpt lat="50.673131" lon="6.390099">
        <ele>259.690000</ele>
        <time>2010-04-05T09:11:56Z</time>
      </trkpt>
      <trkpt lat="50.673389" lon="6.390219">
        <ele>259.210000</ele>
        <time>2010-04-05T09:12:06Z</time>
      </trkpt>
      <trkpt lat="50.673311" lon="6.390228">
        <ele>257.770000</ele>
        <time>2010-04-05T09:12:15Z</time>
      </trkpt>
      <trkpt lat="50.673205" lon="6.390216">
        <ele>257.290000</ele>
        <time>2010-04-05T09:12:26Z</time>
      </trkpt>
      <trkpt lat="50.673108" lon="6.390234">
        <ele>256.810000</ele>
        <time>2010-04-05T09:12:32Z</time>
      </trkpt>
      <trkpt lat="50.672947" lon="6.390233">
        <ele>256.330000</ele>
        <time>2010-04-05T09:12:44Z</time>
      </trkpt>
      <trkpt lat="50.672913" lon="6.390239">
        <ele>255.850000</ele>
        <time>2010-04-05T09:12:46Z</time>
      </trkpt>
      <trkpt lat="50.672739" lon="6.390297">
        <ele>255.850000</ele>
        <time>2010-04-05T09:12:59Z</time>
      </trkpt>
      <trkpt lat="50.672639" lon="6.390333">
        <ele>254.890000</ele>
        <time>2010-04-05T09:13:09Z</time>
      </trkpt>
      <trkpt lat="50.672445" lon="6.390162">
        <ele>253.930000</ele>
        <time>2010-04-05T09:13:23Z</time>
      </trkpt>
      <trkpt lat="50.672380" lon="6.390098">
        <ele>252.480000</ele>
        <time>2010-04-05T09:13:31Z</time>
      </trkpt>
      <trkpt lat="50.672342" lon="6.390037">
        <ele>252.000000</ele>
        <time>2010-04-05T09:13:35Z</time>
      </trkpt>
      <trkpt lat="50.672203" lon="6.389923">
        <ele>252.480000</ele>
        <time>2010-04-05T09:13:48Z</time>
      </trkpt>
      <trkpt lat="50.671993" lon="6.389801">
        <ele>253.930000</ele>
        <time>2010-04-05T09:14:04Z</time>
      </trkpt>
      <trkpt lat="50.671829" lon="6.389835">
        <ele>256.330000</ele>
        <time>2010-04-05T09:14:20Z</time>
      </trkpt>
      <trkpt lat="50.671785" lon="6.389765">
        <ele>257.290000</ele>
        <time>2010-04-05T09:14:37Z</time>
      </trkpt>
      <trkpt lat="50.671671" lon="6.389769">
        <ele>259.690000</ele>
        <time>2010-04-05T09:14:54Z</time>
      </trkpt>
      <trkpt lat="50.671509" lon="6.389790">
        <ele>262.580000</ele>
        <time>2010-04-05T09:15:14Z</time>
      </trkpt>
      <trkpt lat="50.671294" lon="6.389814">
        <ele>264.980000</ele>
        <time>2010-04-05T09:15:34Z</time>
      </trkpt>
      <trkpt lat="50.671120" lon="6.389896">
        <ele>267.860000</ele>
        <time>2010-04-05T09:15:53Z</time>
      </trkpt>
      <trkpt lat="50.670944" lon="6.389963">
        <ele>270.750000</ele>
        <time>2010-04-05T09:16:14Z</time>
      </trkpt>
      <trkpt lat="50.670809" lon="6.390107">
        <ele>273.630000</ele>
        <time>2010-04-05T09:16:34Z</time>
      </trkpt>
      <trkpt lat="50.670752" lon="6.390299">
        <ele>276.520000</ele>
        <time>2010-04-05T09:16:52Z</time>
      </trkpt>
      <trkpt lat="50.670639" lon="6.390368">
        <ele>279.400000</ele>
        <time>2010-04-05T09:17:09Z</time>
      </trkpt>
      <trkpt lat="50.670548" lon="6.390480">
        <ele>282.280000</ele>
        <time>2010-04-05T09:17:27Z</time>
      </trkpt>
      <trkpt lat="50.670509" lon="6.390648">
        <ele>285.650000</ele>
        <time>2010-04-05T09:17:44Z</time>
      </trkpt>
      <trkpt lat="50.670393" lon="6.390842">
        <ele>288.530000</ele>
        <time>2010-04-05T09:18:00Z</time>
      </trkpt>
      <trkpt lat="50.670342" lon="6.390827">
        <ele>290.940000</ele>
        <time>2010-04-05T09:18:16Z</time>
      </trkpt>
      <trkpt lat="50.670262" lon="6.390928">
        <ele>293.820000</ele>
        <time>2010-04-05T09:18:28Z</time>
      </trkpt>
      <trkpt lat="50.670193" lon="6.390922">
        <ele>294.300000</ele>
        <time>2010-04-05T09:18:47Z</time>
      </trkpt>
      <trkpt lat="50.670196" lon="6.390917">
        <ele>294.780000</ele>
        <time>2010-04-05T09:19:16Z</time>
      </trkpt>
      <trkpt lat="50.670099" lon="6.390993">
        <ele>298.150000</ele>
        <time>2010-04-05T09:19:34Z</time>
      </trkpt>
      <trkpt lat="50.670001" lon="6.391202">
        <ele>301.510000</ele>
        <time>2010-04-05T09:19:53Z</time>
      </trkpt>
      <trkpt lat="50.669875" lon="6.391353">
        <ele>304.390000</ele>
        <time>2010-04-05T09:20:09Z</time>
      </trkpt>
      <trkpt lat="50.669869" lon="6.391448">
        <ele>307.760000</ele>
        <time>2010-04-05T09:20:34Z</time>
      </trkpt>
      <trkpt lat="50.669749" lon="6.391515">
        <ele>310.640000</ele>
        <time>2010-04-05T09:20:51Z</time>
      </trkpt>
      <trkpt lat="50.669796" lon="6.391472">
        <ele>313.050000</ele>
        <time>2010-04-05T09:21:08Z</time>
      </trkpt>
      <trkpt lat="50.669830" lon="6.391496">
        <ele>311.600000</ele>
        <time>2010-04-05T09:21:51Z</time>
      </trkpt>
      <trkpt lat="50.669682" lon="6.391664">
        <ele>313.050000</ele>
        <time>2010-04-05T09:22:18Z</time>
      </trkpt>
      <trkpt lat="50.669677" lon="6.391810">
        <ele>315.930000</ele>
        <time>2010-04-05T09:22:31Z</time>
      </trkpt>
      <trkpt lat="50.669735" lon="6.391998">
        <ele>318.810000</ele>
        <time>2010-04-05T09:22:47Z</time>
      </trkpt>
      <trkpt lat="50.669792" lon="6.392098">
        <ele>321.700000</ele>
        <time>2010-04-05T09:23:02Z</time>
      </trkpt>
      <trkpt lat="50.669824" lon="6.392237">
        <ele>325.060000</ele>
        <time>2010-04-05T09:23:15Z</time>
      </trkpt>
      <trkpt lat="50.669871" lon="6.392278">
        <ele>326.990000</ele>
        <time>2010-04-05T09:23:31Z</time>
      </trkpt>
      <trkpt lat="50.669886" lon="6.392387">
        <ele>329.390000</ele>
        <time>2010-04-05T09:23:46Z</time>
      </trkpt>
      <trkpt lat="50.669903" lon="6.392558">
        <ele>332.750000</ele>
        <time>2010-04-05T09:24:01Z</time>
      </trkpt>
      <trkpt lat="50.669908" lon="6.392591">
        <ele>333.230000</ele>
        <time>2010-04-05T09:24:05Z</time>
      </trkpt>
      <trkpt lat="50.669948" lon="6.392900">
        <ele>336.600000</ele>
        <time>2010-04-05T09:24:26Z</time>
      </trkpt>
      <trkpt lat="50.670000" lon="6.393124">
        <ele>339.480000</ele>
        <time>2010-04-05T09:24:42Z</time>
      </trkpt>
      <trkpt lat="50.669955" lon="6.393448">
        <ele>342.370000</ele>
        <time>2010-04-05T09:25:01Z</time>
      </trkpt>
      <trkpt lat="50.669961" lon="6.393509">
        <ele>343.330000</ele>
        <time>2010-04-05T09:25:06Z</time>
      </trkpt>
      <trkpt lat="50.669955" lon="6.393750">
        <ele>346.690000</ele>
        <time>2010-04-05T09:25:22Z</time>
      </trkpt>
      <trkpt lat="50.669968" lon="6.393959">
        <ele>350.060000</ele>
        <time>2010-04-05T09:25:41Z</time>
      </trkpt>
      <trkpt lat="50.670015" lon="6.394007">
        <ele>351.980000</ele>
        <time>2010-04-05T09:26:02Z</time>
      </trkpt>
      <trkpt lat="50.669979" lon="6.394031">
        <ele>354.380000</ele>
        <time>2010-04-05T09:27:23Z</time>
      </trkpt>
      <trkpt lat="50.669906" lon="6.394079">
        <ele>355.340000</ele>
        <time>2010-04-05T09:27:39Z</time>
      </trkpt>
      <trkpt lat="50.669909" lon="6.394200">
        <ele>356.790000</ele>
        <time>2010-04-05T09:28:03Z</time>
      </trkpt>
      <trkpt lat="50.669913" lon="6.394213">
        <ele>357.270000</ele>
        <time>2010-04-05T09:28:04Z</time>
      </trkpt>
      <trkpt lat="50.669953" lon="6.394452">
        <ele>360.150000</ele>
        <time>2010-04-05T09:28:21Z</time>
      </trkpt>
      <trkpt lat="50.669921" lon="6.394666">
        <ele>363.520000</ele>
        <time>2010-04-05T09:28:41Z</time>
      </trkpt>
      <trkpt lat="50.669889" lon="6.394867">
        <ele>366.400000</ele>
        <time>2010-04-05T09:28:59Z</time>
      </trkpt>
      <trkpt lat="50.669794" lon="6.395109">
        <ele>369.280000</ele>
        <time>2010-04-05T09:29:14Z</time>
      </trkpt>
      <trkpt lat="50.669794" lon="6.395209">
        <ele>370.730000</ele>
        <time>2010-04-05T09:29:23Z</time>
      </trkpt>
      <trkpt lat="50.669743" lon="6.395343">
        <ele>373.130000</ele>
        <time>2010-04-05T09:29:36Z</time>
      </trkpt>
      <trkpt lat="50.669737" lon="6.395365">
        <ele>373.130000</ele>
        <time>2010-04-05T09:29:37Z</time>
      </trkpt>
      <trkpt lat="50.669722" lon="6.395509">
        <ele>375.530000</ele>
        <time>2010-04-05T09:29:52Z</time>
      </trkpt>
      <trkpt lat="50.669694" lon="6.395549">
        <ele>376.010000</ele>
        <time>2010-04-05T09:30:01Z</time>
      </trkpt>
      <trkpt lat="50.669576" lon="6.395585">
        <ele>376.970000</ele>
        <time>2010-04-05T09:30:13Z</time>
      </trkpt>
      <trkpt lat="50.669422" lon="6.395645">
        <ele>378.420000</ele>
        <time>2010-04-05T09:30:35Z</time>
      </trkpt>
      <trkpt lat="50.669296" lon="6.395740">
        <ele>380.820000</ele>
        <time>2010-04-05T09:30:48Z</time>
      </trkpt>
      <trkpt lat="50.669189" lon="6.395844">
        <ele>382.740000</ele>
        <time>2010-04-05T09:30:59Z</time>
      </trkpt>
      <trkpt lat="50.669144" lon="6.395875">
        <ele>383.700000</ele>
        <time>2010-04-05T09:31:04Z</time>
      </trkpt>
      <trkpt lat="50.669066" lon="6.395991">
        <ele>385.630000</ele>
        <time>2010-04-05T09:31:16Z</time>
      </trkpt>
      <trkpt lat="50.668999" lon="6.396287">
        <ele>388.510000</ele>
        <time>2010-04-05T09:31:33Z</time>
      </trkpt>
      <trkpt lat="50.668990" lon="6.396331">
        <ele>388.510000</ele>
        <time>2010-04-05T09:31:35Z</time>
      </trkpt>
      <trkpt lat="50.668969" lon="6.396510">
        <ele>389.950000</ele>
        <time>2010-04-05T09:31:47Z</time>
      </trkpt>
      <trkpt lat="50.668970" lon="6.396686">
        <ele>391.390000</ele>
        <time>2010-04-05T09:31:58Z</time>
      </trkpt>
      <trkpt lat="50.668958" lon="6.396804">
        <ele>392.840000</ele>
        <time>2010-04-05T09:32:06Z</time>
      </trkpt>
      <trkpt lat="50.668936" lon="6.396820">
        <ele>392.840000</ele>
        <time>2010-04-05T09:32:08Z</time>
      </trkpt>
      <trkpt lat="50.668811" lon="6.396961">
        <ele>395.240000</ele>
        <time>2010-04-05T09:32:23Z</time>
      </trkpt>
      <trkpt lat="50.668642" lon="6.397230">
        <ele>397.640000</ele>
        <time>2010-04-05T09:32:44Z</time>
      </trkpt>
      <trkpt lat="50.668586" lon="6.397442">
        <ele>399.080000</ele>
        <time>2010-04-05T09:32:57Z</time>
      </trkpt>
      <trkpt lat="50.668542" lon="6.397485">
        <ele>399.570000</ele>
        <time>2010-04-05T09:33:00Z</time>
      </trkpt>
      <trkpt lat="50.668525" lon="6.397547">
        <ele>400.050000</ele>
        <time>2010-04-05T09:33:06Z</time>
      </trkpt>
      <trkpt lat="50.668496" lon="6.397748">
        <ele>401.010000</ele>
        <time>2010-04-05T09:33:16Z</time>
      </trkpt>
      <trkpt lat="50.668535" lon="6.397988">
        <ele>401.490000</ele>
        <time>2010-04-05T09:33:32Z</time>
      </trkpt>
      <trkpt lat="50.668660" lon="6.398259">
        <ele>401.970000</ele>
        <time>2010-04-05T09:33:49Z</time>
      </trkpt>
      <trkpt lat="50.668707" lon="6.398425">
        <ele>401.490000</ele>
        <time>2010-04-05T09:34:00Z</time>
      </trkpt>
      <trkpt lat="50.668771" lon="6.398654">
        <ele>401.010000</ele>
        <time>2010-04-05T09:34:13Z</time>
      </trkpt>
      <trkpt lat="50.668775" lon="6.398710">
        <ele>400.530000</ele>
        <time>2010-04-05T09:34:16Z</time>
      </trkpt>
      <trkpt lat="50.668765" lon="6.398836">
        <ele>400.530000</ele>
        <time>2010-04-05T09:34:22Z</time>
      </trkpt>
      <trkpt lat="50.668773" lon="6.398893">
        <ele>400.050000</ele>
        <time>2010-04-05T09:34:26Z</time>
      </trkpt>
      <trkpt lat="50.668818" lon="6.399084">
        <ele>399.080000</ele>
        <time>2010-04-05T09:34:41Z</time>
      </trkpt>
      <trkpt lat="50.668842" lon="6.399380">
        <ele>398.600000</ele>
        <time>2010-04-05T09:34:55Z</time>
      </trkpt>
      <trkpt lat="50.668834" lon="6.399429">
        <ele>398.120000</ele>
        <time>2010-04-05T09:34:57Z</time>
      </trkpt>
      <trkpt lat="50.668770" lon="6.399672">
        <ele>397.160000</ele>
        <time>2010-04-05T09:35:08Z</time>
      </trkpt>
      <trkpt lat="50.668768" lon="6.399812">
        <ele>397.160000</ele>
        <time>2010-04-05T09:35:16Z</time>
      </trkpt>
      <trkpt lat="50.668780" lon="6.399847">
        <ele>396.680000</ele>
        <time>2010-04-05T09:35:18Z</time>
      </trkpt>
      <trkpt lat="50.668773" lon="6.399891">
        <ele>397.160000</ele>
        <time>2010-04-05T09:35:20Z</time>
      </trkpt>
      <trkpt lat="50.668735" lon="6.399964">
        <ele>396.680000</ele>
        <time>2010-04-05T09:35:24Z</time>
      </trkpt>
      <trkpt lat="50.668717" lon="6.400075">
        <ele>396.680000</ele>
        <time>2010-04-05T09:35:30Z</time>
      </trkpt>
      <trkpt lat="50.668643" lon="6.400254">
        <ele>396.680000</ele>
        <time>2010-04-05T09:35:39Z</time>
      </trkpt>
      <trkpt lat="50.668527" lon="6.400252">
        <ele>396.680000</ele>
        <time>2010-04-05T09:35:47Z</time>
      </trkpt>
      <trkpt lat="50.668465" lon="6.400230">
        <ele>397.160000</ele>
        <time>2010-04-05T09:35:53Z</time>
      </trkpt>
      <trkpt lat="50.668387" lon="6.400189">
        <ele>397.640000</ele>
        <time>2010-04-05T09:36:00Z</time>
      </trkpt>
      <trkpt lat="50.668340" lon="6.400178">
        <ele>397.640000</ele>
        <time>2010-04-05T09:36:03Z</time>
      </trkpt>
      <trkpt lat="50.668324" lon="6.400163">
        <ele>397.160000</ele>
        <time>2010-04-05T09:36:05Z</time>
      </trkpt>
      <trkpt lat="50.668253" lon="6.400123">
        <ele>398.120000</ele>
        <time>2010-04-05T09:36:11Z</time>
      </trkpt>
      <trkpt lat="50.668041" lon="6.400039">
        <ele>398.120000</ele>
        <time>2010-04-05T09:36:26Z</time>
      </trkpt>
      <trkpt lat="50.667900" lon="6.399908">
        <ele>398.600000</ele>
        <time>2010-04-05T09:36:39Z</time>
      </trkpt>
      <trkpt lat="50.667854" lon="6.399859">
        <ele>398.600000</ele>
        <time>2010-04-05T09:36:44Z</time>
      </trkpt>
      <trkpt lat="50.667663" lon="6.399766">
        <ele>399.080000</ele>
        <time>2010-04-05T09:37:00Z</time>
      </trkpt>
      <trkpt lat="50.667583" lon="6.399711">
        <ele>399.570000</ele>
        <time>2010-04-05T09:37:08Z</time>
      </trkpt>
      <trkpt lat="50.667516" lon="6.399673">
        <ele>399.570000</ele>
        <time>2010-04-05T09:37:13Z</time>
      </trkpt>
      <trkpt lat="50.667431" lon="6.399603">
        <ele>400.050000</ele>
        <time>2010-04-05T09:37:20Z</time>
      </trkpt>
      <trkpt lat="50.667242" lon="6.399481">
        <ele>401.010000</ele>
        <time>2010-04-05T09:37:36Z</time>
      </trkpt>
      <trkpt lat="50.667171" lon="6.399380">
        <ele>400.530000</ele>
        <time>2010-04-05T09:37:45Z</time>
      </trkpt>
      <trkpt lat="50.667106" lon="6.399342">
        <ele>401.010000</ele>
        <time>2010-04-05T09:37:50Z</time>
      </trkpt>
      <trkpt lat="50.666965" lon="6.399180">
        <ele>401.490000</ele>
        <time>2010-04-05T09:38:06Z</time>
      </trkpt>
      <trkpt lat="50.666787" lon="6.399020">
        <ele>401.970000</ele>
        <time>2010-04-05T09:38:20Z</time>
      </trkpt>
      <trkpt lat="50.666686" lon="6.398897">
        <ele>402.450000</ele>
        <time>2010-04-05T09:38:30Z</time>
      </trkpt>
      <trkpt lat="50.666662" lon="6.398871">
        <ele>402.450000</ele>
        <time>2010-04-05T09:38:33Z</time>
      </trkpt>
      <trkpt lat="50.666624" lon="6.398808">
        <ele>402.930000</ele>
        <time>2010-04-05T09:38:38Z</time>
      </trkpt>
      <trkpt lat="50.666504" lon="6.398681">
        <ele>403.410000</ele>
        <time>2010-04-05T09:38:51Z</time>
      </trkpt>
      <trkpt lat="50.666338" lon="6.398507">
        <ele>403.890000</ele>
        <time>2010-04-05T09:39:06Z</time>
      </trkpt>
      <trkpt lat="50.666268" lon="6.398499">
        <ele>403.890000</ele>
        <time>2010-04-05T09:39:11Z</time>
      </trkpt>
      <trkpt lat="50.666225" lon="6.398427">
        <ele>404.370000</ele>
        <time>2010-04-05T09:39:15Z</time>
      </trkpt>
      <trkpt lat="50.666105" lon="6.398247">
        <ele>404.850000</ele>
        <time>2010-04-05T09:39:29Z</time>
      </trkpt>
      <trkpt lat="50.665929" lon="6.398100">
        <ele>405.810000</ele>
        <time>2010-04-05T09:39:44Z</time>
      </trkpt>
      <trkpt lat="50.665780" lon="6.397979">
        <ele>406.770000</ele>
        <time>2010-04-05T09:39:58Z</time>
      </trkpt>
      <trkpt lat="50.665633" lon="6.397850">
        <ele>407.740000</ele>
        <time>2010-04-05T09:40:12Z</time>
      </trkpt>
      <trkpt lat="50.665545" lon="6.397814">
        <ele>408.220000</ele>
        <time>2010-04-05T09:40:19Z</time>
      </trkpt>
      <trkpt lat="50.665532" lon="6.397786">
        <ele>409.660000</ele>
        <time>2010-04-05T09:40:22Z</time>
      </trkpt>
      <trkpt lat="50.665522" lon="6.397778">
        <ele>409.180000</ele>
        <time>2010-04-05T09:40:23Z</time>
      </trkpt>
      <trkpt lat="50.665500" lon="6.397782">
        <ele>409.180000</ele>
        <time>2010-04-05T09:40:25Z</time>
      </trkpt>
      <trkpt lat="50.665343" lon="6.397594">
        <ele>409.660000</ele>
        <time>2010-04-05T09:40:41Z</time>
      </trkpt>
      <trkpt lat="50.665308" lon="6.397552">
        <ele>410.620000</ele>
        <time>2010-04-05T09:40:47Z</time>
      </trkpt>
      <trkpt lat="50.665190" lon="6.397531">
        <ele>411.100000</ele>
        <time>2010-04-05T09:41:04Z</time>
      </trkpt>
      <trkpt lat="50.665142" lon="6.397445">
        <ele>412.060000</ele>
        <time>2010-04-05T09:41:12Z</time>
      </trkpt>
      <trkpt lat="50.665070" lon="6.397409">
        <ele>413.020000</ele>
        <time>2010-04-05T09:41:28Z</time>
      </trkpt>
      <trkpt lat="50.664975" lon="6.397293">
        <ele>413.980000</ele>
        <time>2010-04-05T09:41:50Z</time>
      </trkpt>
      <trkpt lat="50.664819" lon="6.397177">
        <ele>414.470000</ele>
        <time>2010-04-05T09:42:04Z</time>
      </trkpt>
      <trkpt lat="50.664633" lon="6.397096">
        <ele>415.910000</ele>
        <time>2010-04-05T09:42:18Z</time>
      </trkpt>
      <trkpt lat="50.664438" lon="6.397123">
        <ele>417.350000</ele>
        <time>2010-04-05T09:42:35Z</time>
      </trkpt>
      <trkpt lat="50.664270" lon="6.397150">
        <ele>418.310000</ele>
        <time>2010-04-05T09:42:49Z</time>
      </trkpt>
      <trkpt lat="50.664146" lon="6.397227">
        <ele>419.750000</ele>
        <time>2010-04-05T09:43:01Z</time>
      </trkpt>
      <trkpt lat="50.663971" lon="6.397413">
        <ele>420.710000</ele>
        <time>2010-04-05T09:43:17Z</time>
      </trkpt>
      <trkpt lat="50.663828" lon="6.397530">
        <ele>422.640000</ele>
        <time>2010-04-05T09:43:32Z</time>
      </trkpt>
      <trkpt lat="50.663703" lon="6.397614">
        <ele>423.120000</ele>
        <time>2010-04-05T09:43:43Z</time>
      </trkpt>
      <trkpt lat="50.663675" lon="6.397637">
        <ele>424.080000</ele>
        <time>2010-04-05T09:43:47Z</time>
      </trkpt>
      <trkpt lat="50.663564" lon="6.397869">
        <ele>425.040000</ele>
        <time>2010-04-05T09:44:03Z</time>
      </trkpt>
      <trkpt lat="50.663582" lon="6.397947">
        <ele>425.040000</ele>
        <time>2010-04-05T09:44:07Z</time>
      </trkpt>
      <trkpt lat="50.663760" lon="6.398153">
        <ele>424.080000</ele>
        <time>2010-04-05T09:44:24Z</time>
      </trkpt>
      <trkpt lat="50.663817" lon="6.398244">
        <ele>423.120000</ele>
        <time>2010-04-05T09:44:31Z</time>
      </trkpt>
      <trkpt lat="50.663899" lon="6.398377">
        <ele>422.160000</ele>
        <time>2010-04-05T09:44:41Z</time>
      </trkpt>
      <trkpt lat="50.664004" lon="6.398535">
        <ele>421.680000</ele>
        <time>2010-04-05T09:44:54Z</time>
      </trkpt>
      <trkpt lat="50.664123" lon="6.398674">
        <ele>420.710000</ele>
        <time>2010-04-05T09:45:06Z</time>
      </trkpt>
      <trkpt lat="50.664209" lon="6.398742">
        <ele>420.710000</ele>
        <time>2010-04-05T09:45:12Z</time>
      </trkpt>
      <trkpt lat="50.664286" lon="6.398750">
        <ele>420.710000</ele>
        <time>2010-04-05T09:45:18Z</time>
      </trkpt>
      <trkpt lat="50.664339" lon="6.398829">
        <ele>419.750000</ele>
        <time>2010-04-05T09:45:23Z</time>
      </trkpt>
      <trkpt lat="50.664472" lon="6.398962">
        <ele>418.310000</ele>
        <time>2010-04-05T09:45:36Z</time>
      </trkpt>
      <trkpt lat="50.664509" lon="6.399001">
        <ele>417.830000</ele>
        <time>2010-04-05T09:45:39Z</time>
      </trkpt>
      <trkpt lat="50.664664" lon="6.399176">
        <ele>416.390000</ele>
        <time>2010-04-05T09:45:54Z</time>
      </trkpt>
      <trkpt lat="50.664839" lon="6.399398">
        <ele>414.470000</ele>
        <time>2010-04-05T09:46:10Z</time>
      </trkpt>
      <trkpt lat="50.664960" lon="6.399564">
        <ele>413.980000</ele>
        <time>2010-04-05T09:46:26Z</time>
      </trkpt>
      <trkpt lat="50.665054" lon="6.399660">
        <ele>412.540000</ele>
        <time>2010-04-05T09:46:36Z</time>
      </trkpt>
      <trkpt lat="50.665089" lon="6.399696">
        <ele>412.060000</ele>
        <time>2010-04-05T09:46:39Z</time>
      </trkpt>
      <trkpt lat="50.665156" lon="6.399789">
        <ele>411.580000</ele>
        <time>2010-04-05T09:46:45Z</time>
      </trkpt>
      <trkpt lat="50.665222" lon="6.399967">
        <ele>410.620000</ele>
        <time>2010-04-05T09:46:57Z</time>
      </trkpt>
      <trkpt lat="50.665322" lon="6.400101">
        <ele>409.180000</ele>
        <time>2010-04-05T09:47:07Z</time>
      </trkpt>
      <trkpt lat="50.665360" lon="6.400158">
        <ele>408.700000</ele>
        <time>2010-04-05T09:47:11Z</time>
      </trkpt>
      <trkpt lat="50.665522" lon="6.400404">
        <ele>407.260000</ele>
        <time>2010-04-05T09:47:27Z</time>
      </trkpt>
      <trkpt lat="50.665668" lon="6.400601">
        <ele>405.330000</ele>
        <time>2010-04-05T09:47:41Z</time>
      </trkpt>
      <trkpt lat="50.665772" lon="6.400805">
        <ele>403.410000</ele>
        <time>2010-04-05T09:47:56Z</time>
      </trkpt>
      <trkpt lat="50.665862" lon="6.400916">
        <ele>401.970000</ele>
        <time>2010-04-05T09:48:04Z</time>
      </trkpt>
      <trkpt lat="50.665870" lon="6.400957">
        <ele>401.970000</ele>
        <time>2010-04-05T09:48:07Z</time>
      </trkpt>
      <trkpt lat="50.665945" lon="6.401132">
        <ele>401.490000</ele>
        <time>2010-04-05T09:48:19Z</time>
      </trkpt>
      <trkpt lat="50.665932" lon="6.401213">
        <ele>401.490000</ele>
        <time>2010-04-05T09:48:24Z</time>
      </trkpt>
      <trkpt lat="50.665921" lon="6.401553">
        <ele>402.450000</ele>
        <time>2010-04-05T09:48:39Z</time>
      </trkpt>
      <trkpt lat="50.665925" lon="6.401823">
        <ele>402.930000</ele>
        <time>2010-04-05T09:48:52Z</time>
      </trkpt>
      <trkpt lat="50.665955" lon="6.402037">
        <ele>403.410000</ele>
        <time>2010-04-05T09:49:05Z</time>
      </trkpt>
      <trkpt lat="50.665936" lon="6.402325">
        <ele>404.370000</ele>
        <time>2010-04-05T09:49:19Z</time>
      </trkpt>
      <trkpt lat="50.665925" lon="6.402489">
        <ele>404.850000</ele>
        <time>2010-04-05T09:49:27Z</time>
      </trkpt>
      <trkpt lat="50.665985" lon="6.402809">
        <ele>404.850000</ele>
        <time>2010-04-05T09:49:43Z</time>
      </trkpt>
      <trkpt lat="50.665975" lon="6.402920">
        <ele>404.850000</ele>
        <time>2010-04-05T09:49:48Z</time>
      </trkpt>
      <trkpt lat="50.665981" lon="6.403214">
        <ele>404.370000</ele>
        <time>2010-04-05T09:50:04Z</time>
      </trkpt>
      <trkpt lat="50.665986" lon="6.403491">
        <ele>404.370000</ele>
        <time>2010-04-05T09:50:17Z</time>
      </trkpt>
      <trkpt lat="50.665963" lon="6.403762">
        <ele>404.370000</ele>
        <time>2010-04-05T09:50:29Z</time>
      </trkpt>
      <trkpt lat="50.665802" lon="6.403817">
        <ele>404.850000</ele>
        <time>2010-04-05T09:50:43Z</time>
      </trkpt>
      <trkpt lat="50.665585" lon="6.403835">
        <ele>404.850000</ele>
        <time>2010-04-05T09:50:57Z</time>
      </trkpt>
      <trkpt lat="50.665437" lon="6.403879">
        <ele>405.330000</ele>
        <time>2010-04-05T09:51:11Z</time>
      </trkpt>
      <trkpt lat="50.665280" lon="6.403865">
        <ele>405.330000</ele>
        <time>2010-04-05T09:51:21Z</time>
      </trkpt>
      <trkpt lat="50.665227" lon="6.403870">
        <ele>405.810000</ele>
        <time>2010-04-05T09:51:25Z</time>
      </trkpt>
      <trkpt lat="50.665108" lon="6.403914">
        <ele>406.290000</ele>
        <time>2010-04-05T09:51:38Z</time>
      </trkpt>
      <trkpt lat="50.665033" lon="6.403926">
        <ele>406.770000</ele>
        <time>2010-04-05T09:51:44Z</time>
      </trkpt>
      <trkpt lat="50.664975" lon="6.403931">
        <ele>406.770000</ele>
        <time>2010-04-05T09:51:48Z</time>
      </trkpt>
      <trkpt lat="50.664855" lon="6.403900">
        <ele>407.740000</ele>
        <time>2010-04-05T09:51:57Z</time>
      </trkpt>
      <trkpt lat="50.664812" lon="6.403898">
        <ele>407.260000</ele>
        <time>2010-04-05T09:52:00Z</time>
      </trkpt>
      <trkpt lat="50.664646" lon="6.403807">
        <ele>408.220000</ele>
        <time>2010-04-05T09:52:15Z</time>
      </trkpt>
      <trkpt lat="50.664546" lon="6.403790">
        <ele>408.220000</ele>
        <time>2010-04-05T09:52:22Z</time>
      </trkpt>
      <trkpt lat="50.664359" lon="6.403723">
        <ele>407.740000</ele>
        <time>2010-04-05T09:52:38Z</time>
      </trkpt>
      <trkpt lat="50.664157" lon="6.403640">
        <ele>407.740000</ele>
        <time>2010-04-05T09:52:53Z</time>
      </trkpt>
      <trkpt lat="50.663959" lon="6.403571">
        <ele>408.220000</ele>
        <time>2010-04-05T09:53:08Z</time>
      </trkpt>
      <trkpt lat="50.663913" lon="6.403555">
        <ele>408.700000</ele>
        <time>2010-04-05T09:53:12Z</time>
      </trkpt>
      <trkpt lat="50.663726" lon="6.403673">
        <ele>407.260000</ele>
        <time>2010-04-05T09:53:27Z</time>
      </trkpt>
      <trkpt lat="50.663688" lon="6.403906">
        <ele>407.260000</ele>
        <time>2010-04-05T09:53:38Z</time>
      </trkpt>
      <trkpt lat="50.663688" lon="6.404019">
        <ele>408.220000</ele>
        <time>2010-04-05T09:53:44Z</time>
      </trkpt>
      <trkpt lat="50.663701" lon="6.404133">
        <ele>408.700000</ele>
        <time>2010-04-05T09:53:48Z</time>
      </trkpt>
      <trkpt lat="50.663701" lon="6.404228">
        <ele>408.700000</ele>
        <time>2010-04-05T09:53:52Z</time>
      </trkpt>
      <trkpt lat="50.663707" lon="6.404267">
        <ele>409.180000</ele>
        <time>2010-04-05T09:53:54Z</time>
      </trkpt>
      <trkpt lat="50.663708" lon="6.404347">
        <ele>409.660000</ele>
        <time>2010-04-05T09:53:58Z</time>
      </trkpt>
      <trkpt lat="50.663712" lon="6.404397">
        <ele>410.140000</ele>
        <time>2010-04-05T09:54:01Z</time>
      </trkpt>
      <trkpt lat="50.663700" lon="6.404465">
        <ele>410.620000</ele>
        <time>2010-04-05T09:54:05Z</time>
      </trkpt>
      <trkpt lat="50.663788" lon="6.404712">
        <ele>413.020000</ele>
        <time>2010-04-05T09:54:19Z</time>
      </trkpt>
      <trkpt lat="50.663770" lon="6.404886">
        <ele>413.500000</ele>
        <time>2010-04-05T09:54:26Z</time>
      </trkpt>
      <trkpt lat="50.663799" lon="6.404945">
        <ele>413.980000</ele>
        <time>2010-04-05T09:54:30Z</time>
      </trkpt>
      <trkpt lat="50.663812" lon="6.405071">
        <ele>414.470000</ele>
        <time>2010-04-05T09:54:38Z</time>
      </trkpt>
      <trkpt lat="50.663839" lon="6.405154">
        <ele>415.430000</ele>
        <time>2010-04-05T09:54:44Z</time>
      </trkpt>
      <trkpt lat="50.663807" lon="6.405256">
        <ele>415.430000</ele>
        <time>2010-04-05T09:54:48Z</time>
      </trkpt>
      <trkpt lat="50.663771" lon="6.405487">
        <ele>416.390000</ele>
        <time>2010-04-05T09:55:02Z</time>
      </trkpt>
      <trkpt lat="50.663752" lon="6.405606">
        <ele>416.870000</ele>
        <time>2010-04-05T09:55:07Z</time>
      </trkpt>
      <trkpt lat="50.663726" lon="6.405892">
        <ele>417.830000</ele>
        <time>2010-04-05T09:55:19Z</time>
      </trkpt>
      <trkpt lat="50.663704" lon="6.406109">
        <ele>417.350000</ele>
        <time>2010-04-05T09:55:32Z</time>
      </trkpt>
      <trkpt lat="50.663694" lon="6.406228">
        <ele>417.350000</ele>
        <time>2010-04-05T09:55:39Z</time>
      </trkpt>
      <trkpt lat="50.663616" lon="6.406516">
        <ele>417.350000</ele>
        <time>2010-04-05T09:55:54Z</time>
      </trkpt>
      <trkpt lat="50.663475" lon="6.406719">
        <ele>416.870000</ele>
        <time>2010-04-05T09:56:08Z</time>
      </trkpt>
      <trkpt lat="50.663398" lon="6.406853">
        <ele>416.870000</ele>
        <time>2010-04-05T09:56:16Z</time>
      </trkpt>
      <trkpt lat="50.663320" lon="6.407052">
        <ele>416.870000</ele>
        <time>2010-04-05T09:56:29Z</time>
      </trkpt>
      <trkpt lat="50.663296" lon="6.407355">
        <ele>416.390000</ele>
        <time>2010-04-05T09:56:44Z</time>
      </trkpt>
      <trkpt lat="50.663308" lon="6.407427">
        <ele>416.390000</ele>
        <time>2010-04-05T09:56:48Z</time>
      </trkpt>
      <trkpt lat="50.663333" lon="6.407660">
        <ele>415.910000</ele>
        <time>2010-04-05T09:56:58Z</time>
      </trkpt>
      <trkpt lat="50.663367" lon="6.407730">
        <ele>415.910000</ele>
        <time>2010-04-05T09:57:03Z</time>
      </trkpt>
      <trkpt lat="50.663424" lon="6.407849">
        <ele>415.430000</ele>
        <time>2010-04-05T09:57:10Z</time>
      </trkpt>
      <trkpt lat="50.663569" lon="6.408002">
        <ele>415.910000</ele>
        <time>2010-04-05T09:57:22Z</time>
      </trkpt>
      <trkpt lat="50.663570" lon="6.408099">
        <ele>415.910000</ele>
        <time>2010-04-05T09:57:26Z</time>
      </trkpt>
      <trkpt lat="50.663638" lon="6.408186">
        <ele>415.430000</ele>
        <time>2010-04-05T09:57:32Z</time>
      </trkpt>
      <trkpt lat="50.663670" lon="6.408335">
        <ele>415.430000</ele>
        <time>2010-04-05T09:57:42Z</time>
      </trkpt>
      <trkpt lat="50.663731" lon="6.408423">
        <ele>415.430000</ele>
        <time>2010-04-05T09:57:48Z</time>
      </trkpt>
      <trkpt lat="50.663746" lon="6.408457">
        <ele>415.430000</ele>
        <time>2010-04-05T09:57:51Z</time>
      </trkpt>
      <trkpt lat="50.663801" lon="6.408496">
        <ele>415.430000</ele>
        <time>2010-04-05T09:57:56Z</time>
      </trkpt>
      <trkpt lat="50.663912" lon="6.408692">
        <ele>415.430000</ele>
        <time>2010-04-05T09:58:09Z</time>
      </trkpt>
      <trkpt lat="50.663931" lon="6.408702">
        <ele>415.430000</ele>
        <time>2010-04-05T09:58:11Z</time>
      </trkpt>
      <trkpt lat="50.664022" lon="6.408866">
        <ele>414.950000</ele>
        <time>2010-04-05T09:58:24Z</time>
      </trkpt>
      <trkpt lat="50.664095" lon="6.408898">
        <ele>414.470000</ele>
        <time>2010-04-05T09:58:29Z</time>
      </trkpt>
      <trkpt lat="50.664147" lon="6.408858">
        <ele>415.430000</ele>
        <time>2010-04-05T09:58:33Z</time>
      </trkpt>
    </trkseg>
  </trk>

</gpx>
